Panarama Park, Iowa
Current Conditions -  °F | °C
As of 11:52 AM on Sunday 21 Dec 2014 (Local Time) from KDVN Reporting Station
Overcast Overcast  
Wind Chill: 30°   Ceiling: 2600
Heat Index: 39°   Visibility: 9mi
Dew Point: 32°   Wind: 17mph
Humidity: 76%   Direction: 160°SSE
Pressure: 30.04"   Gusts: NA
Location:  41.5718°N, 90.4678°W
Report Text: KDVN 211752Z AUTO 16015KT 9SM OVC026 04/00 A3004 RMK AO2 SLP180 T00390000 10039 20017 58021
Loading
Personal Weather Stations






























Interactive Weather Map New forecast layout! Learn more

10-Day Weather Forecast

Advertisements
Track Severe Weather on mobile